sensor_id;sensor_type;location;lat;lon;timestamp;P1;durP1;ratioP1;P2;durP2;ratioP2
71513;SDS011;59335;46.652;21.272;2022-12-17T00:00:27;16.90;;;10.70;;
71513;SDS011;59335;46.652;21.272;2022-12-17T00:03:49;16.67;;;10.25;;
71513;SDS011;59335;46.652;21.272;2022-12-17T00:07:10;16.83;;;10.65;;
71513;SDS011;59335;46.652;21.272;2022-12-17T00:10:32;17.03;;;10.20;;
71513;SDS011;59335;46.652;21.272;2022-12-17T00:13:53;17.50;;;11.48;;
71513;SDS011;59335;46.652;21.272;2022-12-17T00:17:15;17.85;;;11.10;;
71513;SDS011;59335;46.652;21.272;2022-12-17T00:20:36;17.77;;;10.40;;
71513;SDS011;59335;46.652;21.272;2022-12-17T00:23:59;16.10;;;10.73;;
71513;SDS011;59335;46.652;21.272;2022-12-17T00:27:20;14.97;;;10.50;;
71513;SDS011;59335;46.652;21.272;2022-12-17T00:30:41;18.05;;;10.68;;
71513;SDS011;59335;46.652;21.272;2022-12-17T00:34:05;17.27;;;11.02;;
71513;SDS011;59335;46.652;21.272;2022-12-17T00:37:28;15.98;;;10.07;;
71513;SDS011;59335;46.652;21.272;2022-12-17T00:40:50;14.80;;;10.20;;
71513;SDS011;59335;46.652;21.272;2022-12-17T00:44:12;14.63;;;9.77;;
71513;SDS011;59335;46.652;21.272;2022-12-17T00:47:34;16.17;;;10.35;;
71513;SDS011;59335;46.652;21.272;2022-12-17T00:50:55;15.73;;;10.00;;
71513;SDS011;59335;46.652;21.272;2022-12-17T00:54:16;15.13;;;10.23;;
71513;SDS011;59335;46.652;21.272;2022-12-17T00:57:38;16.55;;;10.38;;
71513;SDS011;59335;46.652;21.272;2022-12-17T01:01:00;16.03;;;9.73;;
71513;SDS011;59335;46.652;21.272;2022-12-17T01:04:22;15.43;;;9.80;;
71513;SDS011;59335;46.652;21.272;2022-12-17T01:07:43;15.75;;;10.38;;
71513;SDS011;59335;46.652;21.272;2022-12-17T01:11:06;16.38;;;9.73;;
71513;SDS011;59335;46.652;21.272;2022-12-17T01:14:29;15.05;;;9.77;;
71513;SDS011;59335;46.652;21.272;2022-12-17T01:17:52;16.73;;;10.47;;
71513;SDS011;59335;46.652;21.272;2022-12-17T01:21:13;15.85;;;9.95;;
71513;SDS011;59335;46.652;21.272;2022-12-17T01:24:34;15.85;;;10.55;;
71513;SDS011;59335;46.652;21.272;2022-12-17T01:27:57;14.60;;;9.82;;
71513;SDS011;59335;46.652;21.272;2022-12-17T01:31:20;15.27;;;9.80;;
71513;SDS011;59335;46.652;21.272;2022-12-17T01:34:41;14.40;;;9.50;;
71513;SDS011;59335;46.652;21.272;2022-12-17T01:38:15;15.75;;;9.93;;
71513;SDS011;59335;46.652;21.272;2022-12-17T01:41:37;16.05;;;10.50;;
71513;SDS011;59335;46.652;21.272;2022-12-17T01:44:59;14.82;;;9.70;;
71513;SDS011;59335;46.652;21.272;2022-12-17T01:48:23;14.73;;;9.45;;
71513;SDS011;59335;46.652;21.272;2022-12-17T01:51:54;14.87;;;8.97;;
71513;SDS011;59335;46.652;21.272;2022-12-17T01:55:15;14.63;;;8.95;;
71513;SDS011;59335;46.652;21.272;2022-12-17T01:58:37;14.88;;;9.63;;
71513;SDS011;59335;46.652;21.272;2022-12-17T02:01:59;14.73;;;10.02;;
71513;SDS011;59335;46.652;21.272;2022-12-17T02:05:22;14.38;;;9.65;;
71513;SDS011;59335;46.652;21.272;2022-12-17T02:12:49;14.77;;;9.43;;
71513;SDS011;59335;46.652;21.272;2022-12-17T02:27:00;13.77;;;9.60;;
71513;SDS011;59335;46.652;21.272;2022-12-17T02:30:24;13.68;;;9.40;;
71513;SDS011;59335;46.652;21.272;2022-12-17T02:33:46;13.50;;;9.07;;
71513;SDS011;59335;46.652;21.272;2022-12-17T02:37:08;14.05;;;8.90;;
71513;SDS011;59335;46.652;21.272;2022-12-17T02:40:30;14.23;;;9.27;;
71513;SDS011;59335;46.652;21.272;2022-12-17T02:43:53;13.53;;;9.30;;
71513;SDS011;59335;46.652;21.272;2022-12-17T02:47:15;12.50;;;9.10;;
71513;SDS011;59335;46.652;21.272;2022-12-17T02:50:39;12.98;;;9.18;;
71513;SDS011;59335;46.652;21.272;2022-12-17T02:54:03;14.48;;;9.27;;
71513;SDS011;59335;46.652;21.272;2022-12-17T02:57:24;15.05;;;9.50;;
71513;SDS011;59335;46.652;21.272;2022-12-17T03:00:51;13.67;;;9.13;;
71513;SDS011;59335;46.652;21.272;2022-12-17T03:04:12;13.57;;;8.98;;
71513;SDS011;59335;46.652;21.272;2022-12-17T03:07:34;14.60;;;9.30;;
71513;SDS011;59335;46.652;21.272;2022-12-17T03:10:55;13.75;;;9.13;;
71513;SDS011;59335;46.652;21.272;2022-12-17T03:14:16;14.27;;;9.40;;
71513;SDS011;59335;46.652;21.272;2022-12-17T03:17:38;13.47;;;8.93;;
71513;SDS011;59335;46.652;21.272;2022-12-17T03:20:59;14.23;;;8.85;;
71513;SDS011;59335;46.652;21.272;2022-12-17T03:24:20;13.65;;;8.88;;
71513;SDS011;59335;46.652;21.272;2022-12-17T03:27:41;14.95;;;9.15;;
71513;SDS011;59335;46.652;21.272;2022-12-17T03:31:03;12.57;;;8.95;;
71513;SDS011;59335;46.652;21.272;2022-12-17T03:34:24;12.40;;;8.33;;
71513;SDS011;59335;46.652;21.272;2022-12-17T03:37:46;12.77;;;8.65;;
71513;SDS011;59335;46.652;21.272;2022-12-17T03:41:07;13.70;;;8.82;;
71513;SDS011;59335;46.652;21.272;2022-12-17T03:44:28;13.02;;;8.25;;
71513;SDS011;59335;46.652;21.272;2022-12-17T03:47:50;13.55;;;8.57;;
71513;SDS011;59335;46.652;21.272;2022-12-17T03:51:11;12.70;;;8.10;;
71513;SDS011;59335;46.652;21.272;2022-12-17T03:54:32;13.32;;;8.90;;
71513;SDS011;59335;46.652;21.272;2022-12-17T03:57:54;13.52;;;8.77;;
71513;SDS011;59335;46.652;21.272;2022-12-17T04:01:16;12.48;;;7.80;;
71513;SDS011;59335;46.652;21.272;2022-12-17T04:04:37;12.85;;;8.23;;
71513;SDS011;59335;46.652;21.272;2022-12-17T04:07:59;12.37;;;8.10;;
71513;SDS011;59335;46.652;21.272;2022-12-17T04:11:20;12.52;;;8.15;;
71513;SDS011;59335;46.652;21.272;2022-12-17T04:14:42;12.00;;;8.43;;
71513;SDS011;59335;46.652;21.272;2022-12-17T04:18:03;12.90;;;8.10;;
71513;SDS011;59335;46.652;21.272;2022-12-17T04:21:24;11.60;;;7.50;;
71513;SDS011;59335;46.652;21.272;2022-12-17T04:24:46;11.27;;;7.37;;
71513;SDS011;59335;46.652;21.272;2022-12-17T04:28:07;12.60;;;7.70;;
71513;SDS011;59335;46.652;21.272;2022-12-17T04:31:28;13.15;;;7.80;;
71513;SDS011;59335;46.652;21.272;2022-12-17T04:34:49;13.25;;;7.90;;
71513;SDS011;59335;46.652;21.272;2022-12-17T04:38:27;12.07;;;8.00;;
71513;SDS011;59335;46.652;21.272;2022-12-17T04:41:49;11.77;;;7.63;;
71513;SDS011;59335;46.652;21.272;2022-12-17T04:45:12;13.15;;;7.57;;
71513;SDS011;59335;46.652;21.272;2022-12-17T04:48:33;12.70;;;7.78;;
71513;SDS011;59335;46.652;21.272;2022-12-17T04:51:55;13.02;;;7.70;;
71513;SDS011;59335;46.652;21.272;2022-12-17T04:55:16;12.90;;;8.18;;
71513;SDS011;59335;46.652;21.272;2022-12-17T04:58:37;11.70;;;7.27;;
71513;SDS011;59335;46.652;21.272;2022-12-17T05:01:58;10.43;;;7.05;;
71513;SDS011;59335;46.652;21.272;2022-12-17T05:05:19;11.82;;;7.55;;
71513;SDS011;59335;46.652;21.272;2022-12-17T05:08:41;10.52;;;7.10;;
71513;SDS011;59335;46.652;21.272;2022-12-17T05:12:02;12.32;;;7.97;;
71513;SDS011;59335;46.652;21.272;2022-12-17T05:15:24;11.67;;;7.80;;
71513;SDS011;59335;46.652;21.272;2022-12-17T05:18:52;10.48;;;7.40;;
71513;SDS011;59335;46.652;21.272;2022-12-17T05:22:14;12.10;;;7.70;;
71513;SDS011;59335;46.652;21.272;2022-12-17T05:25:35;10.88;;;7.15;;
71513;SDS011;59335;46.652;21.272;2022-12-17T05:28:56;11.40;;;7.15;;
71513;SDS011;59335;46.652;21.272;2022-12-17T05:32:17;11.60;;;7.03;;
71513;SDS011;59335;46.652;21.272;2022-12-17T05:35:39;12.05;;;7.03;;
71513;SDS011;59335;46.652;21.272;2022-12-17T05:39:00;11.00;;;6.85;;
71513;SDS011;59335;46.652;21.272;2022-12-17T05:42:22;12.23;;;7.30;;
71513;SDS011;59335;46.652;21.272;2022-12-17T05:45:44;11.00;;;7.03;;
71513;SDS011;59335;46.652;21.272;2022-12-17T05:49:06;11.40;;;7.13;;
71513;SDS011;59335;46.652;21.272;2022-12-17T05:52:27;12.18;;;7.28;;
71513;SDS011;59335;46.652;21.272;2022-12-17T05:55:51;11.02;;;7.65;;
71513;SDS011;59335;46.652;21.272;2022-12-17T05:59:13;10.57;;;7.05;;
71513;SDS011;59335;46.652;21.272;2022-12-17T06:02:34;11.52;;;7.20;;
71513;SDS011;59335;46.652;21.272;2022-12-17T06:05:57;11.10;;;7.10;;
71513;SDS011;59335;46.652;21.272;2022-12-17T06:09:18;10.40;;;7.00;;
71513;SDS011;59335;46.652;21.272;2022-12-17T06:12:40;10.95;;;7.15;;
71513;SDS011;59335;46.652;21.272;2022-12-17T06:16:01;10.70;;;7.00;;
71513;SDS011;59335;46.652;21.272;2022-12-17T06:19:23;10.85;;;7.00;;
71513;SDS011;59335;46.652;21.272;2022-12-17T06:22:44;11.50;;;7.00;;
71513;SDS011;59335;46.652;21.272;2022-12-17T06:26:21;11.45;;;7.13;;
71513;SDS011;59335;46.652;21.272;2022-12-17T06:29:44;11.07;;;6.78;;
71513;SDS011;59335;46.652;21.272;2022-12-17T06:33:06;10.40;;;6.97;;
71513;SDS011;59335;46.652;21.272;2022-12-17T06:36:29;10.95;;;6.40;;
71513;SDS011;59335;46.652;21.272;2022-12-17T06:39:50;11.37;;;7.03;;
71513;SDS011;59335;46.652;21.272;2022-12-17T06:43:12;10.32;;;6.72;;
71513;SDS011;59335;46.652;21.272;2022-12-17T06:46:33;10.50;;;6.85;;
71513;SDS011;59335;46.652;21.272;2022-12-17T06:49:55;9.73;;;6.55;;
71513;SDS011;59335;46.652;21.272;2022-12-17T06:53:16;11.15;;;6.82;;
71513;SDS011;59335;46.652;21.272;2022-12-17T06:56:38;9.73;;;6.23;;
71513;SDS011;59335;46.652;21.272;2022-12-17T07:00:00;10.80;;;7.28;;
71513;SDS011;59335;46.652;21.272;2022-12-17T07:03:21;10.63;;;6.65;;
71513;SDS011;59335;46.652;21.272;2022-12-17T07:06:42;10.77;;;7.05;;
71513;SDS011;59335;46.652;21.272;2022-12-17T07:10:04;10.70;;;6.93;;
71513;SDS011;59335;46.652;21.272;2022-12-17T07:13:26;10.80;;;6.83;;
71513;SDS011;59335;46.652;21.272;2022-12-17T07:16:51;10.80;;;6.80;;
71513;SDS011;59335;46.652;21.272;2022-12-17T07:20:12;10.15;;;6.90;;
71513;SDS011;59335;46.652;21.272;2022-12-17T07:23:33;12.00;;;7.38;;
71513;SDS011;59335;46.652;21.272;2022-12-17T07:26:54;11.07;;;7.03;;
71513;SDS011;59335;46.652;21.272;2022-12-17T07:30:16;10.23;;;6.50;;
71513;SDS011;59335;46.652;21.272;2022-12-17T07:33:38;10.23;;;6.60;;
71513;SDS011;59335;46.652;21.272;2022-12-17T07:36:59;11.93;;;7.10;;
71513;SDS011;59335;46.652;21.272;2022-12-17T07:40:21;10.65;;;6.90;;
71513;SDS011;59335;46.652;21.272;2022-12-17T07:43:43;9.75;;;7.07;;
71513;SDS011;59335;46.652;21.272;2022-12-17T07:47:05;11.40;;;7.10;;
71513;SDS011;59335;46.652;21.272;2022-12-17T07:50:26;10.50;;;6.40;;
71513;SDS011;59335;46.652;21.272;2022-12-17T07:53:48;10.88;;;7.05;;
71513;SDS011;59335;46.652;21.272;2022-12-17T07:57:09;11.70;;;7.30;;
71513;SDS011;59335;46.652;21.272;2022-12-17T08:00:30;11.88;;;7.10;;
71513;SDS011;59335;46.652;21.272;2022-12-17T08:03:52;10.43;;;6.40;;
71513;SDS011;59335;46.652;21.272;2022-12-17T08:07:13;11.23;;;6.82;;
71513;SDS011;59335;46.652;21.272;2022-12-17T08:10:34;11.10;;;7.28;;
71513;SDS011;59335;46.652;21.272;2022-12-17T08:13:55;11.07;;;7.70;;
71513;SDS011;59335;46.652;21.272;2022-12-17T08:17:16;11.15;;;6.75;;
71513;SDS011;59335;46.652;21.272;2022-12-17T08:20:39;10.43;;;6.60;;
71513;SDS011;59335;46.652;21.272;2022-12-17T08:24:00;10.02;;;7.07;;
71513;SDS011;59335;46.652;21.272;2022-12-17T08:27:21;12.15;;;7.85;;
71513;SDS011;59335;46.652;21.272;2022-12-17T08:30:46;12.32;;;7.63;;
71513;SDS011;59335;46.652;21.272;2022-12-17T08:34:09;12.15;;;7.82;;
71513;SDS011;59335;46.652;21.272;2022-12-17T08:37:44;11.70;;;7.13;;
71513;SDS011;59335;46.652;21.272;2022-12-17T08:41:06;11.95;;;7.75;;
71513;SDS011;59335;46.652;21.272;2022-12-17T08:44:27;12.68;;;7.75;;
71513;SDS011;59335;46.652;21.272;2022-12-17T08:47:48;11.05;;;7.20;;
71513;SDS011;59335;46.652;21.272;2022-12-17T08:51:11;10.95;;;7.20;;
71513;SDS011;59335;46.652;21.272;2022-12-17T08:54:33;11.90;;;7.80;;
71513;SDS011;59335;46.652;21.272;2022-12-17T08:57:57;11.70;;;7.68;;
71513;SDS011;59335;46.652;21.272;2022-12-17T09:01:19;11.90;;;7.88;;
71513;SDS011;59335;46.652;21.272;2022-12-17T09:04:40;12.20;;;7.72;;
71513;SDS011;59335;46.652;21.272;2022-12-17T09:08:02;13.82;;;8.00;;
71513;SDS011;59335;46.652;21.272;2022-12-17T09:11:26;12.27;;;7.80;;
71513;SDS011;59335;46.652;21.272;2022-12-17T09:14:48;11.73;;;7.38;;
71513;SDS011;59335;46.652;21.272;2022-12-17T09:18:09;13.02;;;7.95;;
71513;SDS011;59335;46.652;21.272;2022-12-17T09:21:30;12.35;;;7.93;;
71513;SDS011;59335;46.652;21.272;2022-12-17T09:24:51;12.77;;;7.93;;
71513;SDS011;59335;46.652;21.272;2022-12-17T09:28:13;12.37;;;7.83;;
71513;SDS011;59335;46.652;21.272;2022-12-17T09:31:34;12.60;;;8.13;;
71513;SDS011;59335;46.652;21.272;2022-12-17T09:34:55;12.10;;;7.90;;
71513;SDS011;59335;46.652;21.272;2022-12-17T09:38:18;12.23;;;7.82;;
71513;SDS011;59335;46.652;21.272;2022-12-17T09:41:42;13.32;;;8.68;;
71513;SDS011;59335;46.652;21.272;2022-12-17T09:45:50;11.90;;;7.63;;
71513;SDS011;59335;46.652;21.272;2022-12-17T09:49:21;13.30;;;8.45;;
71513;SDS011;59335;46.652;21.272;2022-12-17T09:52:45;13.57;;;8.63;;
71513;SDS011;59335;46.652;21.272;2022-12-17T09:56:08;12.73;;;7.80;;
71513;SDS011;59335;46.652;21.272;2022-12-17T09:59:32;14.65;;;8.52;;
71513;SDS011;59335;46.652;21.272;2022-12-17T10:02:55;13.30;;;8.30;;
71513;SDS011;59335;46.652;21.272;2022-12-17T10:06:18;12.90;;;8.57;;
71513;SDS011;59335;46.652;21.272;2022-12-17T10:09:44;13.73;;;8.90;;
71513;SDS011;59335;46.652;21.272;2022-12-17T10:13:19;13.25;;;7.95;;
71513;SDS011;59335;46.652;21.272;2022-12-17T10:16:44;13.55;;;8.63;;
71513;SDS011;59335;46.652;21.272;2022-12-17T10:20:23;13.77;;;8.60;;
71513;SDS011;59335;46.652;21.272;2022-12-17T10:23:50;15.38;;;8.75;;
71513;SDS011;59335;46.652;21.272;2022-12-17T10:27:24;14.63;;;8.40;;
71513;SDS011;59335;46.652;21.272;2022-12-17T10:30:46;12.95;;;8.15;;
71513;SDS011;59335;46.652;21.272;2022-12-17T10:34:12;14.48;;;8.40;;
71513;SDS011;59335;46.652;21.272;2022-12-17T10:37:36;14.20;;;8.50;;
71513;SDS011;59335;46.652;21.272;2022-12-17T10:40:57;12.82;;;8.32;;
71513;SDS011;59335;46.652;21.272;2022-12-17T10:44:35;14.75;;;9.05;;
71513;SDS011;59335;46.652;21.272;2022-12-17T10:47:57;13.43;;;8.35;;
71513;SDS011;59335;46.652;21.272;2022-12-17T10:54:54;14.27;;;8.30;;
71513;SDS011;59335;46.652;21.272;2022-12-17T10:58:18;15.40;;;9.05;;
71513;SDS011;59335;46.652;21.272;2022-12-17T11:01:45;15.02;;;9.25;;
71513;SDS011;59335;46.652;21.272;2022-12-17T11:05:14;13.00;;;8.60;;
71513;SDS011;59335;46.652;21.272;2022-12-17T11:08:43;15.93;;;9.15;;
71513;SDS011;59335;46.652;21.272;2022-12-17T11:12:05;13.53;;;8.80;;
71513;SDS011;59335;46.652;21.272;2022-12-17T11:15:35;15.52;;;9.20;;
71513;SDS011;59335;46.652;21.272;2022-12-17T11:22:35;13.60;;;9.07;;
71513;SDS011;59335;46.652;21.272;2022-12-17T11:26:06;16.50;;;9.63;;
71513;SDS011;59335;46.652;21.272;2022-12-17T11:29:31;16.07;;;9.73;;
71513;SDS011;59335;46.652;21.272;2022-12-17T11:32:56;14.70;;;9.38;;
71513;SDS011;59335;46.652;21.272;2022-12-17T11:36:41;14.93;;;9.10;;
71513;SDS011;59335;46.652;21.272;2022-12-17T11:40:41;15.15;;;9.48;;
71513;SDS011;59335;46.652;21.272;2022-12-17T11:58:51;15.82;;;10.18;;
71513;SDS011;59335;46.652;21.272;2022-12-17T12:05:54;16.53;;;9.90;;
71513;SDS011;59335;46.652;21.272;2022-12-17T12:20:49;17.50;;;10.50;;
71513;SDS011;59335;46.652;21.272;2022-12-17T12:32:01;14.88;;;9.23;;
71513;SDS011;59335;46.652;21.272;2022-12-17T12:35:45;16.23;;;9.90;;
71513;SDS011;59335;46.652;21.272;2022-12-17T12:39:09;16.00;;;9.63;;
71513;SDS011;59335;46.652;21.272;2022-12-17T12:42:40;16.77;;;10.60;;
71513;SDS011;59335;46.652;21.272;2022-12-17T12:46:15;17.02;;;10.43;;
71513;SDS011;59335;46.652;21.272;2022-12-17T12:53:31;17.48;;;10.65;;
71513;SDS011;59335;46.652;21.272;2022-12-17T12:56:52;16.58;;;9.63;;
71513;SDS011;59335;46.652;21.272;2022-12-17T13:00:21;16.47;;;9.57;;
71513;SDS011;59335;46.652;21.272;2022-12-17T13:04:01;17.05;;;10.38;;
71513;SDS011;59335;46.652;21.272;2022-12-17T13:07:41;16.60;;;10.02;;
71513;SDS011;59335;46.652;21.272;2022-12-17T13:10:44;14.73;;;9.63;;
71513;SDS011;59335;46.652;21.272;2022-12-17T13:13:48;18.00;;;10.63;;
71513;SDS011;59335;46.652;21.272;2022-12-17T13:17:01;16.23;;;10.13;;
71513;SDS011;59335;46.652;21.272;2022-12-17T13:20:21;16.52;;;10.23;;
71513;SDS011;59335;46.652;21.272;2022-12-17T13:26:29;17.60;;;11.07;;
71513;SDS011;59335;46.652;21.272;2022-12-17T13:29:44;16.85;;;10.52;;
71513;SDS011;59335;46.652;21.272;2022-12-17T13:33:34;15.23;;;10.03;;
71513;SDS011;59335;46.652;21.272;2022-12-17T13:39:47;16.40;;;10.80;;
71513;SDS011;59335;46.652;21.272;2022-12-17T13:42:52;17.38;;;10.88;;
71513;SDS011;59335;46.652;21.272;2022-12-17T13:45:55;17.65;;;10.68;;
71513;SDS011;59335;46.652;21.272;2022-12-17T13:48:59;15.83;;;10.50;;
71513;SDS011;59335;46.652;21.272;2022-12-17T13:52:15;16.95;;;10.55;;
71513;SDS011;59335;46.652;21.272;2022-12-17T13:55:20;17.70;;;11.07;;
71513;SDS011;59335;46.652;21.272;2022-12-17T13:58:29;17.48;;;10.50;;
71513;SDS011;59335;46.652;21.272;2022-12-17T14:01:41;16.85;;;11.00;;
71513;SDS011;59335;46.652;21.272;2022-12-17T14:04:50;18.13;;;10.87;;
71513;SDS011;59335;46.652;21.272;2022-12-17T14:07:59;16.38;;;10.45;;
71513;SDS011;59335;46.652;21.272;2022-12-17T14:11:05;16.75;;;11.07;;
71513;SDS011;59335;46.652;21.272;2022-12-17T14:14:28;16.73;;;10.77;;
71513;SDS011;59335;46.652;21.272;2022-12-17T14:17:40;16.58;;;10.25;;
71513;SDS011;59335;46.652;21.272;2022-12-17T14:20:45;18.57;;;11.17;;
71513;SDS011;59335;46.652;21.272;2022-12-17T14:23:50;16.95;;;11.15;;
71513;SDS011;59335;46.652;21.272;2022-12-17T14:26:55;17.65;;;10.95;;
71513;SDS011;59335;46.652;21.272;2022-12-17T14:30:00;17.45;;;10.80;;
71513;SDS011;59335;46.652;21.272;2022-12-17T14:36:31;18.00;;;10.80;;
71513;SDS011;59335;46.652;21.272;2022-12-17T14:39:35;15.90;;;10.40;;
71513;SDS011;59335;46.652;21.272;2022-12-17T14:42:44;17.95;;;11.50;;
71513;SDS011;59335;46.652;21.272;2022-12-17T14:45:51;17.20;;;11.07;;
71513;SDS011;59335;46.652;21.272;2022-12-17T14:49:18;17.20;;;10.68;;
71513;SDS011;59335;46.652;21.272;2022-12-17T14:52:41;19.03;;;11.13;;
71513;SDS011;59335;46.652;21.272;2022-12-17T14:55:53;18.33;;;10.77;;
71513;SDS011;59335;46.652;21.272;2022-12-17T14:58:58;17.13;;;11.15;;
71513;SDS011;59335;46.652;21.272;2022-12-17T15:02:11;17.63;;;11.25;;
71513;SDS011;59335;46.652;21.272;2022-12-17T15:05:15;19.15;;;11.50;;
71513;SDS011;59335;46.652;21.272;2022-12-17T15:08:18;18.83;;;11.20;;
71513;SDS011;59335;46.652;21.272;2022-12-17T15:11:22;17.08;;;10.95;;
71513;SDS011;59335;46.652;21.272;2022-12-17T15:14:25;17.80;;;11.30;;
71513;SDS011;59335;46.652;21.272;2022-12-17T15:17:27;17.38;;;11.07;;
71513;SDS011;59335;46.652;21.272;2022-12-17T15:20:30;16.92;;;11.02;;
71513;SDS011;59335;46.652;21.272;2022-12-17T15:23:44;17.90;;;11.40;;
71513;SDS011;59335;46.652;21.272;2022-12-17T15:26:48;18.80;;;11.35;;
71513;SDS011;59335;46.652;21.272;2022-12-17T15:29:51;18.35;;;11.50;;
71513;SDS011;59335;46.652;21.272;2022-12-17T15:32:54;18.30;;;11.25;;
71513;SDS011;59335;46.652;21.272;2022-12-17T15:35:58;17.75;;;11.65;;
71513;SDS011;59335;46.652;21.272;2022-12-17T15:39:01;17.60;;;11.27;;
71513;SDS011;59335;46.652;21.272;2022-12-17T15:42:07;19.60;;;10.63;;
71513;SDS011;59335;46.652;21.272;2022-12-17T15:45:30;17.95;;;11.55;;
71513;SDS011;59335;46.652;21.272;2022-12-17T15:48:33;20.58;;;11.65;;
71513;SDS011;59335;46.652;21.272;2022-12-17T15:51:36;18.67;;;12.13;;
71513;SDS011;59335;46.652;21.272;2022-12-17T15:54:42;17.10;;;10.80;;
71513;SDS011;59335;46.652;21.272;2022-12-17T15:57:44;19.17;;;11.60;;
71513;SDS011;59335;46.652;21.272;2022-12-17T16:00:48;19.15;;;11.38;;
71513;SDS011;59335;46.652;21.272;2022-12-17T16:03:50;17.75;;;11.82;;
71513;SDS011;59335;46.652;21.272;2022-12-17T16:06:53;18.60;;;11.23;;
71513;SDS011;59335;46.652;21.272;2022-12-17T16:09:56;16.37;;;10.40;;
71513;SDS011;59335;46.652;21.272;2022-12-17T16:13:06;18.17;;;10.93;;
71513;SDS011;59335;46.652;21.272;2022-12-17T16:16:09;17.77;;;10.93;;
71513;SDS011;59335;46.652;21.272;2022-12-17T16:19:12;18.42;;;11.70;;
71513;SDS011;59335;46.652;21.272;2022-12-17T16:22:15;18.30;;;11.60;;
71513;SDS011;59335;46.652;21.272;2022-12-17T16:25:19;19.87;;;12.33;;
71513;SDS011;59335;46.652;21.272;2022-12-17T16:28:25;17.88;;;11.23;;
71513;SDS011;59335;46.652;21.272;2022-12-17T16:31:28;18.52;;;10.98;;
71513;SDS011;59335;46.652;21.272;2022-12-17T16:34:32;17.83;;;11.60;;
71513;SDS011;59335;46.652;21.272;2022-12-17T16:37:35;17.67;;;10.90;;
71513;SDS011;59335;46.652;21.272;2022-12-17T16:40:38;17.83;;;10.97;;
71513;SDS011;59335;46.652;21.272;2022-12-17T16:43:42;19.52;;;11.50;;
71513;SDS011;59335;46.652;21.272;2022-12-17T16:46:45;17.58;;;11.85;;
71513;SDS011;59335;46.652;21.272;2022-12-17T16:49:50;19.33;;;11.70;;
71513;SDS011;59335;46.652;21.272;2022-12-17T16:52:53;19.20;;;12.48;;
71513;SDS011;59335;46.652;21.272;2022-12-17T16:55:57;18.50;;;11.20;;
71513;SDS011;59335;46.652;21.272;2022-12-17T16:59:02;18.38;;;11.30;;
71513;SDS011;59335;46.652;21.272;2022-12-17T17:02:09;19.40;;;12.23;;
71513;SDS011;59335;46.652;21.272;2022-12-17T17:05:14;18.05;;;11.52;;
71513;SDS011;59335;46.652;21.272;2022-12-17T17:08:18;19.27;;;12.00;;
71513;SDS011;59335;46.652;21.272;2022-12-17T17:11:22;18.00;;;11.80;;
71513;SDS011;59335;46.652;21.272;2022-12-17T17:14:26;19.77;;;11.45;;
71513;SDS011;59335;46.652;21.272;2022-12-17T17:17:29;18.90;;;12.23;;
71513;SDS011;59335;46.652;21.272;2022-12-17T17:20:52;19.45;;;11.82;;
71513;SDS011;59335;46.652;21.272;2022-12-17T17:23:58;19.33;;;12.20;;
71513;SDS011;59335;46.652;21.272;2022-12-17T17:27:03;17.77;;;11.43;;
71513;SDS011;59335;46.652;21.272;2022-12-17T17:30:05;19.52;;;12.35;;
71513;SDS011;59335;46.652;21.272;2022-12-17T17:33:08;18.85;;;11.98;;
71513;SDS011;59335;46.652;21.272;2022-12-17T17:36:16;19.85;;;12.30;;
71513;SDS011;59335;46.652;21.272;2022-12-17T17:39:26;19.52;;;11.90;;
71513;SDS011;59335;46.652;21.272;2022-12-17T17:42:28;20.03;;;12.53;;
71513;SDS011;59335;46.652;21.272;2022-12-17T17:45:32;19.40;;;12.05;;
71513;SDS011;59335;46.652;21.272;2022-12-17T17:48:35;20.75;;;12.68;;
71513;SDS011;59335;46.652;21.272;2022-12-17T17:51:40;18.90;;;11.48;;
71513;SDS011;59335;46.652;21.272;2022-12-17T17:55:03;17.55;;;11.18;;
71513;SDS011;59335;46.652;21.272;2022-12-17T17:58:07;18.67;;;11.53;;
71513;SDS011;59335;46.652;21.272;2022-12-17T18:01:10;18.90;;;11.93;;
71513;SDS011;59335;46.652;21.272;2022-12-17T18:04:16;19.85;;;12.27;;
71513;SDS011;59335;46.652;21.272;2022-12-17T18:07:23;18.20;;;12.27;;
71513;SDS011;59335;46.652;21.272;2022-12-17T18:10:27;19.55;;;12.70;;
71513;SDS011;59335;46.652;21.272;2022-12-17T18:13:30;18.33;;;11.80;;
71513;SDS011;59335;46.652;21.272;2022-12-17T18:16:52;19.45;;;11.40;;
71513;SDS011;59335;46.652;21.272;2022-12-17T18:19:54;19.38;;;11.75;;
71513;SDS011;59335;46.652;21.272;2022-12-17T18:22:57;18.35;;;11.60;;
71513;SDS011;59335;46.652;21.272;2022-12-17T18:26:10;18.75;;;12.18;;
71513;SDS011;59335;46.652;21.272;2022-12-17T18:32:30;19.08;;;11.90;;
71513;SDS011;59335;46.652;21.272;2022-12-17T18:35:32;19.48;;;12.40;;
71513;SDS011;59335;46.652;21.272;2022-12-17T18:38:35;21.20;;;12.40;;
71513;SDS011;59335;46.652;21.272;2022-12-17T18:41:40;21.13;;;12.18;;
71513;SDS011;59335;46.652;21.272;2022-12-17T18:45:02;19.20;;;12.27;;
71513;SDS011;59335;46.652;21.272;2022-12-17T18:48:05;19.80;;;11.68;;
71513;SDS011;59335;46.652;21.272;2022-12-17T18:51:10;19.33;;;12.45;;
71513;SDS011;59335;46.652;21.272;2022-12-17T18:54:15;19.27;;;12.00;;
71513;SDS011;59335;46.652;21.272;2022-12-17T18:57:23;21.08;;;12.75;;
71513;SDS011;59335;46.652;21.272;2022-12-17T19:00:26;19.63;;;12.63;;
71513;SDS011;59335;46.652;21.272;2022-12-17T19:03:29;19.80;;;12.30;;
71513;SDS011;59335;46.652;21.272;2022-12-17T19:06:32;18.77;;;12.23;;
71513;SDS011;59335;46.652;21.272;2022-12-17T19:09:36;18.25;;;12.32;;
71513;SDS011;59335;46.652;21.272;2022-12-17T19:12:41;19.48;;;12.13;;
71513;SDS011;59335;46.652;21.272;2022-12-17T19:15:46;17.47;;;11.73;;
71513;SDS011;59335;46.652;21.272;2022-12-17T19:18:50;19.92;;;12.57;;
71513;SDS011;59335;46.652;21.272;2022-12-17T19:22:00;19.05;;;12.52;;
71513;SDS011;59335;46.652;21.272;2022-12-17T19:25:05;19.63;;;11.88;;
71513;SDS011;59335;46.652;21.272;2022-12-17T19:28:08;19.27;;;12.10;;
71513;SDS011;59335;46.652;21.272;2022-12-17T19:31:11;20.90;;;12.63;;
71513;SDS011;59335;46.652;21.272;2022-12-17T19:34:18;21.75;;;13.00;;
71513;SDS011;59335;46.652;21.272;2022-12-17T19:37:22;21.40;;;12.70;;
71513;SDS011;59335;46.652;21.272;2022-12-17T19:40:25;19.92;;;12.73;;
71513;SDS011;59335;46.652;21.272;2022-12-17T19:43:28;19.60;;;12.57;;
71513;SDS011;59335;46.652;21.272;2022-12-17T19:46:33;18.80;;;12.60;;
71513;SDS011;59335;46.652;21.272;2022-12-17T19:49:37;20.17;;;12.70;;
71513;SDS011;59335;46.652;21.272;2022-12-17T19:52:40;21.42;;;13.15;;
71513;SDS011;59335;46.652;21.272;2022-12-17T19:55:43;19.50;;;12.40;;
71513;SDS011;59335;46.652;21.272;2022-12-17T19:58:47;19.65;;;12.70;;
71513;SDS011;59335;46.652;21.272;2022-12-17T20:01:54;19.33;;;12.20;;
71513;SDS011;59335;46.652;21.272;2022-12-17T20:04:57;20.30;;;12.95;;
71513;SDS011;59335;46.652;21.272;2022-12-17T20:08:01;20.08;;;13.13;;
71513;SDS011;59335;46.652;21.272;2022-12-17T20:11:04;20.17;;;13.20;;
71513;SDS011;59335;46.652;21.272;2022-12-17T20:14:31;19.75;;;13.00;;
71513;SDS011;59335;46.652;21.272;2022-12-17T20:17:36;20.07;;;12.47;;
71513;SDS011;59335;46.652;21.272;2022-12-17T20:20:38;21.50;;;12.93;;